Аэропорт: Шереметьево. Москва

ICAO: UUEE

METAR:
2024-07-24 16:00:00
UUEE 241600Z 33005MPS 300V360 CAVOK 25/12 Q1011 R06R/CLRD62 R06C/CLRD62 NOSIG
TAF:
2024-07-24 13:52:00
TAF UUEE 241352Z 2415/2515 36003G09MPS 9999 SCT030 TX25/2415Z TN16/2501Z 
  TEMPO 2506/2515 04010G17MPS -TSRA BKN020CB